sensor_id;sensor_type;location;lat;lon;timestamp;pressure;altitude;pressure_sealevel;temperature;humidity
1401;BME280;46518;48.842;8.926;2023-05-24T00:01:30;97444.03;;;14.52;66.18
1401;BME280;46518;48.842;8.926;2023-05-24T00:03:59;97438.75;;;14.57;65.90
1401;BME280;46518;48.842;8.926;2023-05-24T00:06:28;97440.63;;;14.62;65.91
1401;BME280;46518;48.842;8.926;2023-05-24T00:09:00;97430.56;;;14.64;66.52
1401;BME280;46518;48.842;8.926;2023-05-24T00:11:28;97441.38;;;14.52;66.13
1401;BME280;46518;48.842;8.926;2023-05-24T00:13:57;97428.41;;;14.51;66.70
1401;BME280;46518;48.842;8.926;2023-05-24T00:16:25;97427.91;;;14.54;66.72
1401;BME280;46518;48.842;8.926;2023-05-24T00:18:53;97431.59;;;14.53;66.62
1401;BME280;46518;48.842;8.926;2023-05-24T00:21:25;97426.00;;;14.49;66.69
1401;BME280;46518;48.842;8.926;2023-05-24T00:24:03;97429.44;;;14.44;66.84
1401;BME280;46518;48.842;8.926;2023-05-24T00:26:32;97430.75;;;14.37;67.15
1401;BME280;46518;48.842;8.926;2023-05-24T00:29:00;97438.16;;;14.40;67.41
1401;BME280;46518;48.842;8.926;2023-05-24T00:31:28;97436.56;;;14.29;67.58
1401;BME280;46518;48.842;8.926;2023-05-24T00:33:57;97438.16;;;14.30;67.29
1401;BME280;46518;48.842;8.926;2023-05-24T00:36:29;97436.56;;;14.29;67.00
1401;BME280;46518;48.842;8.926;2023-05-24T00:38:58;97433.13;;;14.33;66.91
1401;BME280;46518;48.842;8.926;2023-05-24T00:41:27;97432.38;;;14.38;66.32
1401;BME280;46518;48.842;8.926;2023-05-24T00:43:55;97424.38;;;14.28;66.54
1401;BME280;46518;48.842;8.926;2023-05-24T00:46:26;97431.81;;;14.36;65.79
1401;BME280;46518;48.842;8.926;2023-05-24T00:48:56;97418.81;;;14.29;65.81
1401;BME280;46518;48.842;8.926;2023-05-24T00:51:25;97410.34;;;14.22;65.50
1401;BME280;46518;48.842;8.926;2023-05-24T00:53:55;97428.09;;;14.27;65.36
1401;BME280;46518;48.842;8.926;2023-05-24T00:56:24;97426.75;;;14.19;64.89
1401;BME280;46518;48.842;8.926;2023-05-24T00:58:54;97429.41;;;14.24;64.64
1401;BME280;46518;48.842;8.926;2023-05-24T01:01:22;97427.78;;;14.13;64.83
1401;BME280;46518;48.842;8.926;2023-05-24T01:03:52;97421.13;;;14.10;64.59
1401;BME280;46518;48.842;8.926;2023-05-24T01:06:21;97406.31;;;14.04;64.17
1401;BME280;46518;48.842;8.926;2023-05-24T01:09:04;97422.22;;;14.14;63.92
1401;BME280;46518;48.842;8.926;2023-05-24T01:11:44;97414.28;;;14.14;63.70
1401;BME280;46518;48.842;8.926;2023-05-24T01:14:28;97421.91;;;13.95;63.95
1401;BME280;46518;48.842;8.926;2023-05-24T01:17:05;97422.72;;;14.06;63.43
1401;BME280;46518;48.842;8.926;2023-05-24T01:19:55;97422.44;;;14.02;63.69
1401;BME280;46518;48.842;8.926;2023-05-24T01:25:59;97415.84;;;14.05;63.11
1401;BME280;46518;48.842;8.926;2023-05-24T01:28:32;97422.69;;;13.91;63.29
1401;BME280;46518;48.842;8.926;2023-05-24T01:31:01;97419.25;;;13.95;63.36
1401;BME280;46518;48.842;8.926;2023-05-24T01:33:31;97419.53;;;13.99;63.64
1401;BME280;46518;48.842;8.926;2023-05-24T01:35:59;97421.59;;;13.87;63.42
1401;BME280;46518;48.842;8.926;2023-05-24T01:38:27;97410.19;;;13.76;63.51
1401;BME280;46518;48.842;8.926;2023-05-24T01:41:00;97414.41;;;13.77;63.80
1401;BME280;46518;48.842;8.926;2023-05-24T01:43:37;97399.53;;;13.61;64.21
1401;BME280;46518;48.842;8.926;2023-05-24T01:46:12;97417.34;;;13.75;64.01
1401;BME280;46518;48.842;8.926;2023-05-24T01:48:52;97406.69;;;13.65;64.25
1401;BME280;46518;48.842;8.926;2023-05-24T01:51:23;97423.63;;;13.69;64.60
1401;BME280;46518;48.842;8.926;2023-05-24T01:53:57;97423.63;;;13.64;64.49
1401;BME280;46518;48.842;8.926;2023-05-24T01:56:26;97419.66;;;13.67;64.49
1401;BME280;46518;48.842;8.926;2023-05-24T01:58:59;97421.75;;;13.65;64.39
1401;BME280;46518;48.842;8.926;2023-05-24T02:01:30;97424.69;;;13.63;64.47
1401;BME280;46518;48.842;8.926;2023-05-24T02:03:58;97434.41;;;13.57;64.21
1401;BME280;46518;48.842;8.926;2023-05-24T02:06:26;97432.31;;;13.59;64.31
1401;BME280;46518;48.842;8.926;2023-05-24T02:08:55;97440.25;;;13.59;64.47
1401;BME280;46518;48.842;8.926;2023-05-24T02:11:23;97434.69;;;13.56;64.60
1401;BME280;46518;48.842;8.926;2023-05-24T02:13:51;97432.56;;;13.53;64.77
1401;BME280;46518;48.842;8.926;2023-05-24T02:16:21;97433.38;;;13.58;64.51
1401;BME280;46518;48.842;8.926;2023-05-24T02:18:52;97439.13;;;13.50;64.42
1401;BME280;46518;48.842;8.926;2023-05-24T02:21:21;97428.28;;;13.47;64.09
1401;BME280;46518;48.842;8.926;2023-05-24T02:23:50;97426.16;;;13.44;64.42
1401;BME280;46518;48.842;8.926;2023-05-24T02:26:18;97423.72;;;13.37;64.39
1401;BME280;46518;48.842;8.926;2023-05-24T02:28:46;97433.03;;;13.45;64.04
1401;BME280;46518;48.842;8.926;2023-05-24T02:31:14;97439.84;;;13.35;64.71
1401;BME280;46518;48.842;8.926;2023-05-24T02:33:44;97420.50;;;13.30;64.52
1401;BME280;46518;48.842;8.926;2023-05-24T02:36:12;97422.06;;;13.26;64.62
1401;BME280;46518;48.842;8.926;2023-05-24T02:38:40;97427.13;;;13.32;64.46
1401;BME280;46518;48.842;8.926;2023-05-24T02:41:08;97431.34;;;13.28;64.57
1401;BME280;46518;48.842;8.926;2023-05-24T02:43:37;97436.53;;;13.18;65.06
1401;BME280;46518;48.842;8.926;2023-05-24T02:46:05;97431.69;;;13.10;64.64
1401;BME280;46518;48.842;8.926;2023-05-24T02:48:33;97430.91;;;13.09;65.21
1401;BME280;46518;48.842;8.926;2023-05-24T02:51:04;97438.03;;;13.09;65.36
1401;BME280;46518;48.842;8.926;2023-05-24T02:53:32;97435.88;;;13.01;65.77
1401;BME280;46518;48.842;8.926;2023-05-24T02:56:00;97436.66;;;13.01;65.69
1401;BME280;46518;48.842;8.926;2023-05-24T02:58:30;97443.50;;;12.97;66.17
1401;BME280;46518;48.842;8.926;2023-05-24T03:00:59;97432.69;;;12.99;65.47
1401;BME280;46518;48.842;8.926;2023-05-24T03:03:28;97433.94;;;12.91;66.40
1401;BME280;46518;48.842;8.926;2023-05-24T03:05:56;97435.81;;;12.90;65.88
1401;BME280;46518;48.842;8.926;2023-05-24T03:08:26;97433.63;;;12.87;66.34
1401;BME280;46518;48.842;8.926;2023-05-24T03:10:55;97427.88;;;12.90;66.33
1401;BME280;46518;48.842;8.926;2023-05-24T03:13:23;97433.06;;;12.80;66.68
1401;BME280;46518;48.842;8.926;2023-05-24T03:15:51;97423.25;;;12.76;66.78
1401;BME280;46518;48.842;8.926;2023-05-24T03:18:19;97423.78;;;12.78;66.67
1401;BME280;46518;48.842;8.926;2023-05-24T03:20:47;97429.09;;;12.83;66.93
1401;BME280;46518;48.842;8.926;2023-05-24T03:23:16;97421.19;;;12.83;66.80
1401;BME280;46518;48.842;8.926;2023-05-24T03:25:45;97424.19;;;12.91;66.57
1401;BME280;46518;48.842;8.926;2023-05-24T03:28:13;97418.41;;;13.00;66.41
1401;BME280;46518;48.842;8.926;2023-05-24T03:30:42;97422.63;;;12.95;66.51
1401;BME280;46518;48.842;8.926;2023-05-24T03:33:11;97436.91;;;13.00;66.30
1401;BME280;46518;48.842;8.926;2023-05-24T03:35:39;97426.09;;;13.01;66.76
1401;BME280;46518;48.842;8.926;2023-05-24T03:38:08;97417.91;;;13.03;66.50
1401;BME280;46518;48.842;8.926;2023-05-24T03:40:39;97425.59;;;13.04;66.29
1401;BME280;46518;48.842;8.926;2023-05-24T03:43:18;97417.91;;;13.03;66.03
1401;BME280;46518;48.842;8.926;2023-05-24T03:45:51;97424.19;;;12.91;66.30
1401;BME280;46518;48.842;8.926;2023-05-24T03:48:19;97417.84;;;12.92;66.59
1401;BME280;46518;48.842;8.926;2023-05-24T03:50:50;97421.53;;;12.91;66.49
1401;BME280;46518;48.842;8.926;2023-05-24T03:53:20;97422.13;;;12.99;66.53
1401;BME280;46518;48.842;8.926;2023-05-24T03:55:49;97417.88;;;12.98;66.45
1401;BME280;46518;48.842;8.926;2023-05-24T03:58:19;97416.28;;;12.97;66.34
1401;BME280;46518;48.842;8.926;2023-05-24T04:00:49;97427.09;;;12.95;66.50
1401;BME280;46518;48.842;8.926;2023-05-24T04:03:17;97420.78;;;12.96;66.73
1401;BME280;46518;48.842;8.926;2023-05-24T04:05:46;97424.19;;;12.91;66.64
1401;BME280;46518;48.842;8.926;2023-05-24T04:08:14;97418.84;;;12.86;66.88
1401;BME280;46518;48.842;8.926;2023-05-24T04:10:42;97416.50;;;12.90;66.70
1401;BME280;46518;48.842;8.926;2023-05-24T04:13:11;97395.31;;;12.85;66.72
1401;BME280;46518;48.842;8.926;2023-05-24T04:15:40;97415.19;;;12.92;66.80
1401;BME280;46518;48.842;8.926;2023-05-24T04:18:10;97404.03;;;12.85;66.61
1401;BME280;46518;48.842;8.926;2023-05-24T04:20:39;97396.91;;;12.81;66.29
1401;BME280;46518;48.842;8.926;2023-05-24T04:23:08;97420.66;;;12.81;66.84
1401;BME280;46518;48.842;8.926;2023-05-24T04:25:36;97418.84;;;12.86;67.11
1401;BME280;46518;48.842;8.926;2023-05-24T04:28:05;97418.53;;;12.83;67.42
1401;BME280;46518;48.842;8.926;2023-05-24T04:30:34;97407.22;;;12.87;67.08
1401;BME280;46518;48.842;8.926;2023-05-24T04:33:04;97421.50;;;12.86;67.60
1401;BME280;46518;48.842;8.926;2023-05-24T04:35:32;97422.53;;;12.85;67.72
1401;BME280;46518;48.842;8.926;2023-05-24T04:38:01;97424.13;;;12.86;67.48
1401;BME280;46518;48.842;8.926;2023-05-24T04:40:29;97430.41;;;12.80;67.65
1401;BME280;46518;48.842;8.926;2023-05-24T04:42:58;97436.50;;;12.81;68.42
1401;BME280;46518;48.842;8.926;2023-05-24T04:45:26;97440.50;;;12.83;67.94
1401;BME280;46518;48.842;8.926;2023-05-24T04:47:56;97439.19;;;12.86;68.49
1401;BME280;46518;48.842;8.926;2023-05-24T04:50:26;97437.00;;;12.78;68.61
1401;BME280;46518;48.842;8.926;2023-05-24T04:52:55;97440.97;;;12.80;68.83
1401;BME280;46518;48.842;8.926;2023-05-24T04:55:23;97447.03;;;12.76;68.48
1401;BME280;46518;48.842;8.926;2023-05-24T04:57:51;97450.72;;;12.74;68.33
1401;BME280;46518;48.842;8.926;2023-05-24T05:00:19;97445.97;;;12.77;68.68
1401;BME280;46518;48.842;8.926;2023-05-24T05:02:48;97442.59;;;12.81;69.20
1401;BME280;46518;48.842;8.926;2023-05-24T05:05:17;97443.66;;;12.85;69.25
1401;BME280;46518;48.842;8.926;2023-05-24T05:07:47;97444.22;;;12.87;69.78
1401;BME280;46518;48.842;8.926;2023-05-24T05:10:15;97439.41;;;12.79;69.15
1401;BME280;46518;48.842;8.926;2023-05-24T05:12:43;97454.56;;;12.94;69.20
1401;BME280;46518;48.842;8.926;2023-05-24T05:15:11;97463.84;;;12.97;68.08
1401;BME280;46518;48.842;8.926;2023-05-24T05:17:39;97452.63;;;12.84;68.06
1401;BME280;46518;48.842;8.926;2023-05-24T05:20:08;97453.44;;;12.85;67.88
1401;BME280;46518;48.842;8.926;2023-05-24T05:22:36;97456.13;;;12.90;68.30
1401;BME280;46518;48.842;8.926;2023-05-24T05:25:07;97446.84;;;12.87;68.37
1401;BME280;46518;48.842;8.926;2023-05-24T05:27:35;97444.41;;;12.76;68.17
1401;BME280;46518;48.842;8.926;2023-05-24T05:30:03;97453.66;;;12.78;67.08
1401;BME280;46518;48.842;8.926;2023-05-24T05:32:32;97455.25;;;12.79;67.34
1401;BME280;46518;48.842;8.926;2023-05-24T05:35:00;97453.06;;;12.71;67.26
1401;BME280;46518;48.842;8.926;2023-05-24T05:37:29;97448.81;;;12.70;67.14
1401;BME280;46518;48.842;8.926;2023-05-24T05:39:57;97451.88;;;12.57;67.31
1401;BME280;46518;48.842;8.926;2023-05-24T05:42:27;97446.41;;;12.63;66.92
1401;BME280;46518;48.842;8.926;2023-05-24T05:44:56;97442.78;;;12.74;66.89
1401;BME280;46518;48.842;8.926;2023-05-24T05:47:24;97446.41;;;12.63;66.67
1401;BME280;46518;48.842;8.926;2023-05-24T05:49:52;97449.91;;;12.74;66.41
1401;BME280;46518;48.842;8.926;2023-05-24T05:52:20;97429.69;;;12.58;67.04
1401;BME280;46518;48.842;8.926;2023-05-24T05:54:48;97441.72;;;12.70;66.40
1401;BME280;46518;48.842;8.926;2023-05-24T05:57:16;97447.81;;;12.76;67.07
1401;BME280;46518;48.842;8.926;2023-05-24T05:59:51;97445.63;;;12.68;66.56
1401;BME280;46518;48.842;8.926;2023-05-24T06:02:20;97446.16;;;12.70;66.84
1401;BME280;46518;48.842;8.926;2023-05-24T06:04:49;97441.16;;;12.68;66.32
1401;BME280;46518;48.842;8.926;2023-05-24T06:07:17;97435.78;;;12.58;66.43
1401;BME280;46518;48.842;8.926;2023-05-24T06:09:45;97442.75;;;12.69;66.05
1401;BME280;46518;48.842;8.926;2023-05-24T06:12:14;97443.53;;;12.70;65.59
1401;BME280;46518;48.842;8.926;2023-05-24T06:14:42;97443.28;;;12.71;66.16
1401;BME280;46518;48.842;8.926;2023-05-24T06:17:12;97445.69;;;12.73;65.88
1401;BME280;46518;48.842;8.926;2023-05-24T06:19:40;97439.41;;;12.79;65.37
1401;BME280;46518;48.842;8.926;2023-05-24T06:22:10;97442.75;;;12.69;65.21
1401;BME280;46518;48.842;8.926;2023-05-24T06:24:39;97439.91;;;12.76;65.73
1401;BME280;46518;48.842;8.926;2023-05-24T06:27:07;97442.78;;;12.74;65.47
1401;BME280;46518;48.842;8.926;2023-05-24T06:29:36;97441.53;;;12.55;64.51
1401;BME280;46518;48.842;8.926;2023-05-24T06:32:05;97425.38;;;12.46;65.78
1401;BME280;46518;48.842;8.926;2023-05-24T06:34:35;97409.22;;;12.43;66.12
1401;BME280;46518;48.842;8.926;2023-05-24T06:37:03;97437.41;;;12.64;66.10
1401;BME280;46518;48.842;8.926;2023-05-24T06:39:31;97455.19;;;12.74;65.52
1401;BME280;46518;48.842;8.926;2023-05-24T06:42:00;97440.84;;;12.65;65.82
1401;BME280;46518;48.842;8.926;2023-05-24T06:44:35;97432.69;;;12.66;65.48
1401;BME280;46518;48.842;8.926;2023-05-24T06:47:03;97471.72;;;12.91;65.41
1401;BME280;46518;48.842;8.926;2023-05-24T06:49:34;97459.78;;;12.84;65.47
1401;BME280;46518;48.842;8.926;2023-05-24T06:52:03;97459.47;;;12.80;65.79
1401;BME280;46518;48.842;8.926;2023-05-24T06:54:33;97463.81;;;12.91;65.96
1401;BME280;46518;48.842;8.926;2023-05-24T06:57:02;97452.13;;;12.87;65.67
1401;BME280;46518;48.842;8.926;2023-05-24T06:59:31;97456.38;;;12.88;65.09
1401;BME280;46518;48.842;8.926;2023-05-24T07:01:59;97488.75;;;13.06;65.52
1401;BME280;46518;48.842;8.926;2023-05-24T07:04:30;97486.16;;;13.11;65.71
1401;BME280;46518;48.842;8.926;2023-05-24T07:07:00;97484.91;;;13.19;65.50
1401;BME280;46518;48.842;8.926;2023-05-24T07:10:33;97498.63;;;13.15;65.07
1401;BME280;46518;48.842;8.926;2023-05-24T07:13:02;97464.94;;;13.01;64.12
1401;BME280;46518;48.842;8.926;2023-05-24T07:15:30;97474.13;;;12.93;64.85
1401;BME280;46518;48.842;8.926;2023-05-24T07:17:58;97480.44;;;12.92;64.94
1401;BME280;46518;48.842;8.926;2023-05-24T07:20:26;97479.88;;;12.90;65.01
1401;BME280;46518;48.842;8.926;2023-05-24T07:22:56;97495.03;;;13.00;64.77
1401;BME280;46518;48.842;8.926;2023-05-24T07:25:26;97491.31;;;12.95;65.57
1401;BME280;46518;48.842;8.926;2023-05-24T07:27:55;97508.28;;;13.05;65.81
1401;BME280;46518;48.842;8.926;2023-05-24T07:30:23;97513.19;;;13.18;65.50
1401;BME280;46518;48.842;8.926;2023-05-24T07:32:56;97519.84;;;13.26;64.93
1401;BME280;46518;48.842;8.926;2023-05-24T07:35:24;97492.72;;;13.03;64.13
1401;BME280;46518;48.842;8.926;2023-05-24T07:37:54;97495.44;;;13.13;64.50
1401;BME280;46518;48.842;8.926;2023-05-24T07:40:24;97488.09;;;13.21;64.45
1401;BME280;46518;48.842;8.926;2023-05-24T07:42:52;97494.53;;;13.30;64.33
1401;BME280;46518;48.842;8.926;2023-05-24T07:45:21;97484.50;;;13.32;64.08
1401;BME280;46518;48.842;8.926;2023-05-24T07:47:49;97509.00;;;13.59;64.27
1401;BME280;46518;48.842;8.926;2023-05-24T07:50:19;97494.41;;;13.52;64.00
1401;BME280;46518;48.842;8.926;2023-05-24T07:52:53;97510.41;;;13.72;63.13
1401;BME280;46518;48.842;8.926;2023-05-24T07:55:22;97502.22;;;13.74;62.97
1401;BME280;46518;48.842;8.926;2023-05-24T07:57:51;97512.50;;;13.70;61.88
1401;BME280;46518;48.842;8.926;2023-05-24T08:00:20;97500.53;;;13.57;62.34
1401;BME280;46518;48.842;8.926;2023-05-24T08:02:49;97525.22;;;13.68;62.34
1401;BME280;46518;48.842;8.926;2023-05-24T08:05:18;97525.97;;;13.64;62.18
1401;BME280;46518;48.842;8.926;2023-05-24T08:07:46;97515.09;;;13.60;62.47
1401;BME280;46518;48.842;8.926;2023-05-24T08:10:14;97502.34;;;13.52;62.13
1401;BME280;46518;48.842;8.926;2023-05-24T08:12:44;97511.09;;;13.57;61.96
1401;BME280;46518;48.842;8.926;2023-05-24T08:15:14;97524.88;;;13.59;62.32
1401;BME280;46518;48.842;8.926;2023-05-24T08:17:42;97528.03;;;13.56;62.69
1401;BME280;46518;48.842;8.926;2023-05-24T08:20:10;97513.44;;;13.49;62.80
1401;BME280;46518;48.842;8.926;2023-05-24T08:22:40;97529.47;;;13.74;62.32
1401;BME280;46518;48.842;8.926;2023-05-24T08:25:09;97516.75;;;13.71;62.72
1401;BME280;46518;48.842;8.926;2023-05-24T08:27:38;97508.78;;;13.66;62.14
1401;BME280;46518;48.842;8.926;2023-05-24T08:30:08;97526.38;;;13.88;62.00
1401;BME280;46518;48.842;8.926;2023-05-24T08:32:40;97525.00;;;13.80;62.10
1401;BME280;46518;48.842;8.926;2023-05-24T08:35:09;97524.25;;;13.85;61.63
1401;BME280;46518;48.842;8.926;2023-05-24T08:37:47;97543.66;;;14.00;61.15
1401;BME280;46518;48.842;8.926;2023-05-24T08:40:16;97542.31;;;13.98;60.64
1401;BME280;46518;48.842;8.926;2023-05-24T08:42:44;97526.31;;;13.77;60.69
1401;BME280;46518;48.842;8.926;2023-05-24T08:45:14;97530.00;;;13.76;60.38
1401;BME280;46518;48.842;8.926;2023-05-24T08:47:44;97552.53;;;13.84;60.68
1401;BME280;46518;48.842;8.926;2023-05-24T08:50:16;97542.97;;;13.73;60.30
1401;BME280;46518;48.842;8.926;2023-05-24T08:52:45;97537.91;;;13.71;60.67
1401;BME280;46518;48.842;8.926;2023-05-24T08:55:13;97530.22;;;13.70;60.62
1401;BME280;46518;48.842;8.926;2023-05-24T08:57:43;97548.50;;;13.71;61.76
1401;BME280;46518;48.842;8.926;2023-05-24T09:00:13;97523.56;;;13.62;61.66
1401;BME280;46518;48.842;8.926;2023-05-24T09:02:44;97539.53;;;13.77;62.06
1401;BME280;46518;48.842;8.926;2023-05-24T09:05:14;97526.50;;;13.61;61.93
1401;BME280;46518;48.842;8.926;2023-05-24T09:07:44;97523.09;;;13.70;62.11
1401;BME280;46518;48.842;8.926;2023-05-24T09:10:12;97532.09;;;13.69;61.51
1401;BME280;46518;48.842;8.926;2023-05-24T09:12:44;97528.63;;;13.64;61.88
1401;BME280;46518;48.842;8.926;2023-05-24T09:15:16;97515.13;;;13.65;61.95
1401;BME280;46518;48.842;8.926;2023-05-24T09:17:46;97527.59;;;13.70;61.49
1401;BME280;46518;48.842;8.926;2023-05-24T09:20:14;97522.03;;;13.66;61.27
1401;BME280;46518;48.842;8.926;2023-05-24T09:22:44;97542.25;;;13.88;61.73
1401;BME280;46518;48.842;8.926;2023-05-24T09:25:17;97536.44;;;13.86;61.94
1401;BME280;46518;48.842;8.926;2023-05-24T09:27:49;97523.66;;;13.77;62.37
1401;BME280;46518;48.842;8.926;2023-05-24T09:30:18;97518.16;;;13.84;62.59
1401;BME280;46518;48.842;8.926;2023-05-24T09:32:55;97514.19;;;13.87;62.12
1401;BME280;46518;48.842;8.926;2023-05-24T09:35:24;97521.66;;;13.95;61.71
1401;BME280;46518;48.842;8.926;2023-05-24T09:37:54;97553.22;;;14.12;61.67
1401;BME280;46518;48.842;8.926;2023-05-24T09:40:26;97556.69;;;14.17;61.51
1401;BME280;46518;48.842;8.926;2023-05-24T09:43:04;97553.75;;;14.09;62.13
1401;BME280;46518;48.842;8.926;2023-05-24T09:45:37;97535.97;;;13.99;61.90
1401;BME280;46518;48.842;8.926;2023-05-24T09:48:10;97547.88;;;14.01;61.88
1401;BME280;46518;48.842;8.926;2023-05-24T09:50:39;97558.06;;;14.25;61.71
1401;BME280;46518;48.842;8.926;2023-05-24T09:53:08;97542.97;;;14.20;61.81
1401;BME280;46518;48.842;8.926;2023-05-24T09:55:36;97533.91;;;14.11;61.16
1401;BME280;46518;48.842;8.926;2023-05-24T09:58:06;97558.56;;;14.22;60.85
1401;BME280;46518;48.842;8.926;2023-05-24T10:00:37;97555.91;;;14.17;60.49
1401;BME280;46518;48.842;8.926;2023-05-24T10:03:08;97556.38;;;14.03;59.60
1401;BME280;46518;48.842;8.926;2023-05-24T10:05:41;97556.63;;;14.02;60.12
1401;BME280;46518;48.842;8.926;2023-05-24T10:08:11;97554.91;;;14.23;60.32
1401;BME280;46518;48.842;8.926;2023-05-24T10:10:40;97558.66;;;14.42;60.95
1401;BME280;46518;48.842;8.926;2023-05-24T10:13:12;97519.19;;;14.36;60.07
1401;BME280;46518;48.842;8.926;2023-05-24T10:15:42;97544.75;;;14.67;59.22
1401;BME280;46518;48.842;8.926;2023-05-24T10:18:10;97542.66;;;14.80;58.36
1401;BME280;46518;48.842;8.926;2023-05-24T10:20:41;97542.72;;;15.00;57.86
1401;BME280;46518;48.842;8.926;2023-05-24T10:23:13;97545.63;;;15.09;57.38
1401;BME280;46518;48.842;8.926;2023-05-24T10:25:49;97548.56;;;15.23;56.27
1401;BME280;46518;48.842;8.926;2023-05-24T10:28:21;97546.44;;;15.25;56.68
1401;BME280;46518;48.842;8.926;2023-05-24T10:31:00;97538.22;;;15.16;55.81
1401;BME280;46518;48.842;8.926;2023-05-24T10:33:31;97540.53;;;14.82;53.83
1401;BME280;46518;48.842;8.926;2023-05-24T10:36:04;97532.97;;;14.38;54.85
1401;BME280;46518;48.842;8.926;2023-05-24T10:38:36;97525.84;;;14.43;55.84
1401;BME280;46518;48.842;8.926;2023-05-24T10:41:07;97519.53;;;14.55;56.06
1401;BME280;46518;48.842;8.926;2023-05-24T10:43:36;97521.44;;;14.70;56.94
1401;BME280;46518;48.842;8.926;2023-05-24T10:46:07;97501.34;;;14.89;57.46
1401;BME280;46518;48.842;8.926;2023-05-24T10:48:37;97529.47;;;15.21;57.36
1401;BME280;46518;48.842;8.926;2023-05-24T10:51:32;97522.59;;;15.45;56.57
1401;BME280;46518;48.842;8.926;2023-05-24T10:54:15;97520.19;;;15.49;55.60
1401;BME280;46518;48.842;8.926;2023-05-24T10:56:44;97521.50;;;15.57;54.77
1401;BME280;46518;48.842;8.926;2023-05-24T10:59:30;97518.59;;;15.63;53.05
1401;BME280;46518;48.842;8.926;2023-05-24T11:02:00;97514.88;;;15.69;53.29
1401;BME280;46518;48.842;8.926;2023-05-24T11:04:30;97508.97;;;15.98;53.81
1401;BME280;46518;48.842;8.926;2023-05-24T11:07:05;97514.44;;;16.27;53.18
1401;BME280;46518;48.842;8.926;2023-05-24T11:09:35;97506.38;;;16.53;52.86
1401;BME280;46518;48.842;8.926;2023-05-24T11:12:06;97495.16;;;16.61;50.55
1401;BME280;46518;48.842;8.926;2023-05-24T11:14:36;97500.50;;;16.56;48.66
1401;BME280;46518;48.842;8.926;2023-05-24T11:17:06;97505.28;;;16.54;47.36
1401;BME280;46518;48.842;8.926;2023-05-24T11:19:36;97504.34;;;16.29;46.93
1401;BME280;46518;48.842;8.926;2023-05-24T11:22:07;97508.91;;;16.18;50.33
1401;BME280;46518;48.842;8.926;2023-05-24T11:24:35;97516.63;;;16.20;49.33
1401;BME280;46518;48.842;8.926;2023-05-24T11:27:04;97506.00;;;16.10;49.02
1401;BME280;46518;48.842;8.926;2023-05-24T11:29:39;97506.88;;;15.95;48.10
1401;BME280;46518;48.842;8.926;2023-05-24T11:32:07;97511.16;;;15.65;49.52
1401;BME280;46518;48.842;8.926;2023-05-24T11:34:36;97498.66;;;15.81;49.36
1401;BME280;46518;48.842;8.926;2023-05-24T11:37:07;97496.78;;;15.92;49.50
1401;BME280;46518;48.842;8.926;2023-05-24T11:39:36;97475.56;;;15.82;50.16
1401;BME280;46518;48.842;8.926;2023-05-24T11:42:05;97492.22;;;16.08;50.37
1401;BME280;46518;48.842;8.926;2023-05-24T11:44:35;97481.25;;;16.25;49.81
1401;BME280;46518;48.842;8.926;2023-05-24T11:47:06;97490.50;;;16.32;51.19
1401;BME280;46518;48.842;8.926;2023-05-24T11:49:35;97494.25;;;16.31;47.69
1401;BME280;46518;48.842;8.926;2023-05-24T11:52:03;97498.13;;;15.84;47.22
1401;BME280;46518;48.842;8.926;2023-05-24T11:54:33;97493.91;;;15.42;50.73
1401;BME280;46518;48.842;8.926;2023-05-24T11:57:04;97480.91;;;15.71;50.43
1401;BME280;46518;48.842;8.926;2023-05-24T11:59:32;97484.81;;;16.00;50.12
1401;BME280;46518;48.842;8.926;2023-05-24T12:02:04;97488.75;;;16.17;48.81
1401;BME280;46518;48.842;8.926;2023-05-24T12:04:34;97473.44;;;16.49;48.32
1401;BME280;46518;48.842;8.926;2023-05-24T12:07:02;97471.84;;;16.53;48.60
1401;BME280;46518;48.842;8.926;2023-05-24T12:09:32;97478.59;;;16.74;48.14
1401;BME280;46518;48.842;8.926;2023-05-24T12:12:00;97473.28;;;16.79;48.04
1401;BME280;46518;48.842;8.926;2023-05-24T12:14:30;97475.97;;;16.69;47.92
1401;BME280;46518;48.842;8.926;2023-05-24T12:16:59;97472.34;;;16.50;47.36
1401;BME280;46518;48.842;8.926;2023-05-24T12:19:29;97465.63;;;16.68;48.03
1401;BME280;46518;48.842;8.926;2023-05-24T12:22:02;97464.72;;;16.88;47.30
1401;BME280;46518;48.842;8.926;2023-05-24T12:24:32;97471.69;;;16.78;47.89
1401;BME280;46518;48.842;8.926;2023-05-24T12:27:02;97473.50;;;16.88;47.68
1401;BME280;46518;48.842;8.926;2023-05-24T12:29:34;97465.66;;;17.02;47.54
1401;BME280;46518;48.842;8.926;2023-05-24T12:32:03;97471.47;;;17.09;46.94
1401;BME280;46518;48.842;8.926;2023-05-24T12:34:31;97464.75;;;17.17;46.33
1401;BME280;46518;48.842;8.926;2023-05-24T12:36:59;97459.59;;;17.31;46.58
1401;BME280;46518;48.842;8.926;2023-05-24T12:39:28;97460.09;;;17.33;45.48
1401;BME280;46518;48.842;8.926;2023-05-24T12:42:02;97457.06;;;16.81;47.51
1401;BME280;46518;48.842;8.926;2023-05-24T12:44:32;97465.03;;;16.76;46.51
1401;BME280;46518;48.842;8.926;2023-05-24T12:47:01;97462.00;;;16.53;48.50
1401;BME280;46518;48.842;8.926;2023-05-24T12:49:30;97447.44;;;16.46;47.74
1401;BME280;46518;48.842;8.926;2023-05-24T12:51:59;97446.88;;;16.49;48.33
1401;BME280;46518;48.842;8.926;2023-05-24T12:54:28;97450.72;;;16.22;47.14
1401;BME280;46518;48.842;8.926;2023-05-24T12:56:57;97443.66;;;16.02;49.32
1401;BME280;46518;48.842;8.926;2023-05-24T12:59:29;97446.41;;;16.36;49.36
1401;BME280;46518;48.842;8.926;2023-05-24T13:01:58;97442.94;;;16.41;46.96
1401;BME280;46518;48.842;8.926;2023-05-24T13:04:26;97443.72;;;16.42;47.29
1401;BME280;46518;48.842;8.926;2023-05-24T13:06:56;97445.13;;;16.73;48.16
1401;BME280;46518;48.842;8.926;2023-05-24T13:09:24;97444.88;;;17.09;47.32
1401;BME280;46518;48.842;8.926;2023-05-24T13:11:53;97434.25;;;17.38;46.03
1401;BME280;46518;48.842;8.926;2023-05-24T13:14:21;97431.59;;;17.38;46.23
1401;BME280;46518;48.842;8.926;2023-05-24T13:16:51;97435.16;;;17.53;45.13
1401;BME280;46518;48.842;8.926;2023-05-24T13:19:19;97433.81;;;17.55;45.26
1401;BME280;46518;48.842;8.926;2023-05-24T13:21:47;97435.38;;;17.56;44.92
1401;BME280;46518;48.842;8.926;2023-05-24T13:24:15;97436.56;;;17.69;43.77
1401;BME280;46518;48.842;8.926;2023-05-24T13:26:43;97424.22;;;17.83;42.83
1401;BME280;46518;48.842;8.926;2023-05-24T13:29:12;97418.88;;;18.07;43.74